Latest Weather Observations for Cape Borda

IDS60801

Issued at 4:05 am CST Tuesday 2 September 2014 (issued every 30 minutes, with the page automatically refreshed every 10 minutes)

About weather observations | Map of weather stations | Latest weather observations for SA | Other Formats
Station Details ID: 022823 Name: CAPE BORDA Lat: -35.75 Lon: 136.60 Height: 158.0 m
Data from the previous 72 hours. | See also: Recent months at Cape Borda
Date/Time
CST
Temp
°C
App
Temp
°C
Dew
Point
Rel
Hum
%
Delta-T
°C
Wind Press
QNH
hPa
Press
MSL
hPa
Rain
since 9 am
mm
Dir
 
Spd
km/h
Gust
km/h
Spd
kts
Gust
kts
02/04:00am 9.2 2.7 4.5 72 2.1 SSW 28 37 15 20 1022.3 - 1.8
02/03:30am 9.2 2.3 6.4 83 1.3 SSW 32 50 17 27 1021.7 - 1.8
02/03:12am 9.0 2.2 5.0 76 1.8 SSW 30 48 16 26 1021.4 - 1.8
02/03:00am 8.6 3.2 6.2 85 1.1 S 24 37 13 20 1021.8 1021.9 1.8
02/02:30am 8.6 1.8 5.3 80 1.5 SSW 30 41 16 22 1021.6 - 1.8
02/02:00am 8.7 1.8 6.5 86 1.0 SSW 32 44 17 24 1021.5 - 1.8
02/01:30am 8.5 1.7 6.8 89 0.8 SSW 32 46 17 25 1021.1 - 1.6
02/01:00am 9.2 1.9 4.7 73 2.0 SSW 32 46 17 25 1021.1 - 1.2
02/12:30am 9.9 1.6 4.3 68 2.5 SSW 37 56 20 30 1020.8 - 1.2
02/12:19am 10.2 2.2 3.6 63 2.9 SSW 35 59 19 32 1020.6 - 1.2
02/12:00am 9.1 2.3 5.1 76 1.8 SSW 30 39 16 21 1020.9 1020.9 1.2
 
Date/Time
CST
Temp
°C
App
Temp
°C
Dew
Point
Rel
Hum
%
Delta-T
°C
Wind Press
QNH
hPa
Press
MSL
hPa
Rain
since 9 am
mm
Dir
 
Spd
km/h
Gust
km/h
Spd
kts
Gust
kts
01/11:41pm 9.1 1.6 4.6 73 2.0 SSW 33 52 18 28 1020.8 - 1.2
01/11:30pm 10.0 1.6 3.9 66 2.7 SSW 37 52 20 28 1020.5 - 1.2
01/11:00pm 9.6 0.9 2.3 60 3.1 SW 37 54 20 29 1020.5 - 1.2
01/10:40pm 9.9 2.4 4.6 69 2.4 SSW 33 52 18 28 1020.4 - 1.2
01/10:30pm 9.8 1.7 3.4 64 2.8 SW 35 46 19 25 1020.3 - 1.2
01/10:00pm 9.4 1.1 4.0 69 2.4 SW 37 50 20 27 1019.8 - 1.0
01/09:46pm 9.2 2.9 5.7 79 1.6 SW 28 46 15 25 1019.6 - 1.0
01/09:30pm 8.2 2.7 6.0 86 1.0 SSW 24 37 13 20 1019.7 - 1.0
01/09:17pm 7.8 1.1 5.4 85 1.1 SSW 30 48 16 26 1019.5 - 1.0
01/09:06pm 8.0 -0.6 4.6 79 1.5 S 39 48 21 26 1019.3 - 1.0
01/09:02pm 9.5 1.6 4.6 71 2.2 SW 35 54 19 29 1019.3 - 1.0
01/09:00pm 9.4 1.5 4.2 70 2.3 SW 35 48 19 26 1019.3 1019.4 1.0
01/08:40pm 8.4 1.0 4.1 74 1.9 SSW 32 50 17 27 1019.0 - 1.0
01/08:30pm 8.3 0.6 5.2 81 1.4 SSW 35 44 19 24 1018.8 - 1.0
01/08:22pm 8.8 -2.9 3.2 68 2.4 SW 54 74 29 40 1018.8 - 0.8
01/08:21pm 9.2 -3.5 2.9 65 2.7 SSW 59 74 32 40 1018.5 - 0.8
01/08:00pm 9.2 1.1 3.2 66 2.6 SSW 35 56 19 30 1018.4 - 0.8
01/07:32pm 10.3 1.2 1.8 55 3.6 SW 39 59 21 32 1018.1 - 0.6
01/07:30pm 10.3 1.6 1.8 55 3.6 SW 37 54 20 29 1018.0 - 0.6
01/07:02pm 9.6 1.8 2.0 59 3.2 SW 32 56 17 30 1017.6 - 0.6
01/07:00pm 9.4 2.1 2.6 62 2.9 SW 30 46 16 25 1017.7 - 0.6
01/06:31pm 9.7 2.0 2.4 60 3.1 SW 32 50 17 27 1017.0 - 0.6
01/06:30pm 9.7 2.1 2.7 61 3.0 SW 32 48 17 26 1017.1 - 0.6
01/06:17pm 9.9 1.6 1.9 57 3.4 SW 35 54 19 29 1016.8 - 0.6
01/06:00pm 9.8 1.3 3.4 64 2.8 SW 37 52 20 28 1016.5 1016.6 0.4
01/05:30pm 9.3 -0.7 4.1 70 2.3 SW 46 70 25 38 1016.2 - 0.4
01/05:27pm 9.5 -1.4 3.6 66 2.6 SW 50 70 27 38 1016.0 - 0.4
01/05:03pm 9.9 3.7 6.3 78 1.7 SW 28 46 15 25 1015.9 - 0.4
01/05:00pm 9.7 3.8 6.0 78 1.7 SW 26 39 14 21 1015.7 - 0.4
01/04:30pm 9.6 2.4 5.9 78 1.7 SSW 33 46 18 25 1015.5 - 0.4
01/04:02pm 9.5 0.1 7.0 84 1.2 SW 46 67 25 36 1015.3 - 0.4
01/04:00pm 9.6 -0.6 6.9 83 1.3 SW 50 67 27 36 1015.0 - 0.4
01/03:56pm 10.8 3.7 5.6 70 2.4 SW 32 50 17 27 1015.0 - 0.4
01/03:30pm 12.3 5.6 5.5 63 3.2 SW 30 43 16 23 1014.7 - 0.4
01/03:00pm 11.9 4.6 4.7 61 3.3 SW 32 44 17 24 1014.4 1014.4 0.4
01/02:30pm 11.9 4.3 6.0 67 2.8 SW 35 46 19 25 1014.3 - 0.4
01/02:08pm 11.0 4.3 7.5 79 1.7 WSW 32 52 17 28 1014.2 - 0.4
01/02:00pm 10.4 3.7 7.5 82 1.4 WSW 32 48 17 26 1014.2 - 0.4
01/01:56pm 10.6 4.4 7.9 83 1.3 W 30 48 16 26 1014.2 - 0.2
01/01:30pm 12.7 7.9 7.4 70 2.6 WSW 22 35 12 19 1014.2 - 0.2
01/01:00pm 11.5 6.4 6.0 69 2.6 WSW 22 30 12 16 1014.3 - 0.2
01/12:30pm 10.6 3.7 7.3 80 1.6 WSW 33 46 18 25 1014.5 - 0.2
01/12:19pm 10.8 3.9 6.6 75 2.0 WSW 32 44 17 24 1014.5 - 0.2
01/12:00pm 13.5 9.0 6.0 60 3.6 W 19 26 10 14 1014.4 1014.4 0.0
01/11:30am 13.6 9.1 6.3 61 3.5 WSW 19 26 10 14 1014.6 - 0.0
01/11:00am 13.0 8.4 6.3 64 3.2 SW 20 28 11 15 1014.6 - 0.0
01/10:30am 13.5 7.4 4.7 55 4.1 W 26 33 14 18 1014.4 - 0.0
01/10:00am 13.2 7.0 2.0 46 4.9 SW 24 33 13 18 1014.3 - 0.0
01/09:30am 12.7 5.9 3.3 52 4.2 WSW 28 39 15 21 1014.2 - 0.0
01/09:00am 12.1 7.1 4.5 59 3.5 WSW 20 32 11 17 1014.0 1014.1 2.6
01/08:30am 11.7 6.5 3.4 56 3.7 WSW 20 30 11 16 1013.7 - 2.6
01/08:00am 11.2 5.2 3.6 59 3.4 WSW 24 35 13 19 1013.4 - 2.6
01/07:30am 10.9 4.9 3.5 60 3.3 SW 24 37 13 20 1013.0 - 2.6
01/07:00am 10.3 4.0 4.0 65 2.8 SW 26 35 14 19 1012.7 - 2.6
01/06:30am 10.4 4.2 4.2 65 2.8 SW 26 37 14 20 1012.4 - 2.6
01/06:00am 10.4 4.3 4.9 69 2.5 SW 26 39 14 21 1012.1 1012.2 2.6
01/05:30am 10.7 5.0 6.5 75 2.0 SW 26 37 14 20 1011.8 - 2.6
01/05:00am 10.1 6.2 8.7 91 0.7 SW 19 24 10 13 1011.6 - 2.6
01/04:30am 10.7 5.5 8.7 87 1.0 SW 26 39 14 21 1011.3 - 2.6
01/04:00am 10.8 6.7 8.8 87 1.0 SW 20 28 11 15 1011.1 - 2.6
01/03:30am 11.1 6.4 7.8 80 1.6 SW 22 32 12 17 1011.0 - 2.4
01/03:00am 11.6 6.8 9.0 84 1.3 SW 24 32 13 17 1010.9 1010.9 2.4
01/02:30am 11.6 6.6 8.2 79 1.7 SW 24 33 13 18 1010.8 - 2.4
01/02:00am 11.2 7.0 9.8 91 0.7 SW 22 32 12 17 1011.2 - 2.4
01/01:30am 11.3 6.7 9.7 90 0.8 SW 24 37 13 20 1011.4 - 2.4
01/01:00am 11.8 8.1 10.3 90 0.8 SW 20 28 11 15 1011.4 - 2.4
01/12:30am 12.0 7.1 9.9 87 1.1 SW 26 33 14 18 1011.3 - 2.2
01/12:00am 12.1 7.6 10.0 87 1.1 SW 24 30 13 16 1011.5 1011.6 2.2
 
Date/Time
CST
Temp
°C
App
Temp
°C
Dew
Point
Rel
Hum
%
Delta-T
°C
Wind Press
QNH
hPa
Press
MSL
hPa
Rain
since 9 am
mm
Dir
 
Spd
km/h
Gust
km/h
Spd
kts
Gust
kts
31/11:30pm 12.2 7.7 10.1 87 1.1 SW 24 32 13 17 1011.2 - 2.2
31/11:00pm 12.1 7.1 9.6 85 1.3 SW 26 39 14 21 1011.0 - 2.2
31/10:30pm 12.1 6.8 9.8 86 1.2 SW 28 37 15 20 1011.0 - 2.2
31/10:00pm 12.1 7.2 10.0 87 1.1 WSW 26 39 14 21 1011.0 - 2.2
31/09:30pm 12.2 8.6 10.7 90 0.8 WSW 20 30 11 16 1011.1 - 2.2
31/09:00pm 12.4 8.5 10.9 90 0.8 WSW 22 30 12 16 1010.8 1010.9 2.2
31/08:30pm 11.9 9.3 10.6 92 0.7 WSW 15 19 8 10 1011.0 - 2.2
31/08:00pm 11.9 7.9 10.4 90 0.8 WSW 22 28 12 15 1011.4 - 2.2
31/07:30pm 12.3 9.0 11.6 95 0.4 WSW 20 30 11 16 1011.2 - 2.2
31/07:00pm 12.1 9.0 11.5 96 0.3 WSW 19 28 10 15 1011.2 - 1.8
31/06:30pm 12.5 8.5 11.9 96 0.3 W 24 39 13 21 1010.9 - 1.2
31/06:00pm 13.1 9.9 12.0 93 0.6 WSW 20 28 11 15 1010.2 1010.3 0.2
31/05:30pm 13.2 9.4 11.3 88 1.0 SW 22 32 12 17 1010.0 - 0.0
31/05:00pm 13.8 10.4 12.5 92 0.7 WSW 22 30 12 16 1009.9 - 0.0
31/04:30pm 14.1 11.1 12.5 90 0.9 WSW 20 30 11 16 1009.5 - 0.0
31/04:00pm 14.8 12.3 12.3 85 1.4 W 17 24 9 13 1009.5 - 0.0
31/03:30pm 15.2 12.9 10.3 72 2.6 W 13 19 7 10 1009.6 - 0.0
31/03:00pm 16.2 13.6 9.3 63 3.6 NW 13 19 7 10 1009.8 1009.9 0.0
31/02:30pm 15.3 13.1 9.3 67 3.1 N 11 17 6 9 1010.0 - 0.0
31/02:00pm 15.6 13.1 9.7 68 3.1 N 13 15 7 8 1010.3 - 0.0
31/01:30pm 15.3 12.3 9.3 67 3.1 N 15 20 8 11 1010.4 - 0.0
31/01:00pm 15.1 11.4 9.5 69 2.9 N 19 26 10 14 1010.7 - 0.0
31/12:30pm 14.6 12.0 9.4 71 2.7 E 13 17 7 9 1009.9 - 0.0
31/12:00pm 14.7 12.1 9.3 70 2.8 ENE 13 17 7 9 1010.7 1010.8 0.0
31/11:30am 14.8 11.4 9.2 69 2.9 N 17 22 9 12 1012.0 - 0.0
31/11:00am 14.7 10.9 9.1 69 2.9 ENE 19 28 10 15 1011.4 - 0.0
31/10:30am 15.1 11.6 8.6 65 3.3 N 17 24 9 13 1012.7 - 0.0
31/10:00am 15.6 12.2 9.0 65 3.4 N 17 24 9 13 1012.9 - 0.0
31/09:30am 15.3 11.5 8.9 65 3.3 N 19 26 10 14 1013.2 - 0.0
31/09:00am 14.9 11.0 9.3 69 2.9 NNE 20 26 11 14 1013.1 1013.3 0.0
31/08:30am 14.9 11.0 9.5 70 2.8 NE 20 26 11 14 1012.9 - 0.0
31/08:00am 14.5 10.8 10.1 75 2.3 NE 20 26 11 14 1012.5 - 0.0
31/07:30am 14.3 10.8 10.9 80 1.8 NE 20 30 11 16 1012.3 - 0.0
31/07:00am 14.1 10.4 10.3 78 2.0 NE 20 30 11 16 1012.0 - 0.0
31/06:30am 14.2 11.0 10.0 76 2.2 NE 17 24 9 13 1012.8 - 0.0
31/06:00am 14.4 11.2 9.8 74 2.4 NE 17 20 9 11 1012.9 1013.1 0.0
31/05:30am 14.6 11.2 9.2 70 2.8 NE 17 22 9 12 1012.9 - 0.0
31/05:00am 14.6 11.3 9.4 71 2.7 NE 17 22 9 12 1012.9 - 0.0
31/04:30am 14.8 11.7 8.7 67 3.1 NNE 15 20 8 11 1013.3 - 0.0
31/04:00am 15.1 11.0 7.7 61 3.7 NE 19 24 10 13 1013.4 - 0.0
31/03:30am 16.0 10.3 4.9 47 5.3 NNE 24 37 13 20 1013.2 - 0.0
31/03:00am 15.1 10.6 7.0 58 4.0 NE 20 26 11 14 1013.2 1013.4 0.0
31/02:30am 15.2 10.4 7.4 59 3.9 NNE 22 28 12 15 1013.8 - 0.0
31/02:00am 15.3 10.4 7.0 57 4.1 NE 22 32 12 17 1014.0 - 0.0
31/01:30am 15.2 10.6 6.6 56 4.2 NE 20 26 11 14 1014.0 - 0.0
31/01:00am 14.8 10.0 7.4 61 3.7 NE 22 30 12 16 1014.2 - 0.0
31/12:30am 14.8 10.1 7.6 62 3.6 NE 22 30 12 16 1014.5 - 0.0
31/12:00am 15.3 10.8 7.0 57 4.1 NE 20 26 11 14 1015.1 1015.2 0.0
 
Date/Time
CST
Temp
°C
App
Temp
°C
Dew
Point
Rel
Hum
%
Delta-T
°C
Wind Press
QNH
hPa
Press
MSL
hPa
Rain
since 9 am
mm
Dir
 
Spd
km/h
Gust
km/h
Spd
kts
Gust
kts
30/11:30pm 15.5 11.0 6.8 56 4.3 NE 20 28 11 15 1015.3 - 0.0
30/11:00pm 15.7 10.4 7.0 56 4.3 NE 24 32 13 17 1015.3 - 0.0
30/10:30pm 15.7 10.3 6.5 54 4.5 NE 24 32 13 17 1015.8 - 0.0
30/10:00pm 16.0 10.7 6.7 54 4.6 NE 24 39 13 21 1015.9 - 0.0
30/09:30pm 16.3 10.8 5.8 50 5.1 NE 24 35 13 19 1016.1 - 0.0
30/09:00pm 16.1 10.6 6.1 51 4.9 NE 24 37 13 20 1016.2 1016.3 0.0
30/08:30pm 15.9 10.4 6.0 52 4.8 NE 24 33 13 18 1016.2 - 0.0
30/08:00pm 15.9 10.6 6.6 54 4.6 NE 24 35 13 19 1016.4 - 0.0
30/07:30pm 16.0 11.1 6.7 54 4.6 NE 22 30 12 16 1016.4 - 0.0
30/07:00pm 15.8 11.6 8.1 60 3.9 NE 20 28 11 15 1016.6 - 0.0
30/06:30pm 16.1 11.2 6.8 54 4.6 ENE 22 30 12 16 1016.7 - 0.0
30/06:00pm 16.6 11.7 4.9 46 5.6 NE 20 28 11 15 1016.7 1016.9 0.0
30/05:30pm 16.2 11.3 5.1 47 5.3 NE 20 26 11 14 1016.7 - 0.0
30/05:00pm 16.0 11.6 6.4 53 4.7 NE 19 30 10 16 1017.1 - 0.0
30/04:30pm 16.0 11.9 7.7 58 4.2 NE 19 24 10 13 1017.1 - 0.0
30/04:00pm 17.3 12.9 7.6 53 4.9 NE 20 28 11 15 1017.2 - 0.0
30/03:30pm 17.0 12.9 8.5 57 4.4 NE 20 28 11 15 1017.5 - 0.0
30/03:00pm 16.4 12.5 9.5 63 3.6 NE 20 28 11 15 1017.8 1018.0 0.0
30/02:30pm 17.0 12.3 9.4 61 4.0 NE 24 32 13 17 1018.0 - 0.0
30/02:00pm 17.6 13.9 10.1 61 4.0 NE 20 30 11 16 1018.6 - 0.0
30/01:30pm 17.2 13.6 10.7 65 3.5 NNE 20 32 11 17 1019.1 - 0.0
30/01:00pm 17.0 12.9 10.2 64 3.6 NNE 22 32 12 17 1019.4 - 0.0
30/12:30pm 17.3 13.0 10.6 64 3.6 NE 24 32 13 17 1019.8 - 0.0
30/12:00pm 16.8 12.7 11.3 70 3.0 NE 24 32 13 17 1020.2 1020.4 0.0
30/11:30am 16.8 12.6 11.1 69 3.1 NNE 24 35 13 19 1020.8 - 0.0
30/11:00am 16.8 12.7 11.3 70 3.0 NNE 24 35 13 19 1020.9 - 0.0
30/10:30am 16.5 12.8 11.5 72 2.7 NE 22 32 12 17 1021.4 - 0.0
30/10:00am 16.8 12.8 10.6 67 3.3 NE 22 32 12 17 1021.5 - 0.0
30/09:30am 16.5 12.4 10.1 66 3.4 NNE 22 32 12 17 1021.6 - 0.0
30/09:00am 15.5 11.8 10.2 70 2.8 NE 20 28 11 15 1021.8 1022.0 0.0
30/08:30am 15.5 11.9 10.4 71 2.7 NE 20 30 11 16 1021.9 - 0.0
30/08:00am 14.4 10.8 10.4 77 2.1 NE 20 28 11 15 1021.7 - 0.0
30/07:30am 14.0 10.4 10.4 79 1.9 NE 20 26 11 14 1021.5 - 0.0
30/07:00am 13.6 9.4 9.7 77 2.0 NE 22 30 12 16 1021.2 - 0.0
30/06:30am 13.3 9.5 9.8 79 1.8 NE 20 30 11 16 1021.2 - 0.0
30/06:00am 13.2 9.5 10.1 81 1.6 NE 20 28 11 15 1021.0 1021.1 0.0
30/05:30am 13.2 9.5 10.3 82 1.5 NE 20 28 11 15 1021.0 - 0.0
30/05:00am 13.2 9.5 10.3 82 1.5 ENE 20 28 11 15 1021.1 - 0.0
30/04:30am 13.1 9.4 10.2 82 1.5 ENE 20 24 11 13 1021.4 - 0.0

Other Formats:

Comma delimited format used in spreadsheet applications
http://www.bom.gov.au/fwo/IDS60801/IDS60801.95805.axf

JavaScript Object Notation format (JSON) in row-major order
http://www.bom.gov.au/fwo/IDS60801/IDS60801.95805.json